Latest Weather Observations for Armidale Airport

IDN60801

Issued at 8:33 pm EST Sunday 24 July 2016 (issued every 30 minutes, with the page automatically refreshed every 10 minutes)

About weather observations | Map of weather stations | Latest weather observations for NSW | Other Formats
Station Details ID: 056238 Name: ARMIDALE AIRPORT AWS Lat: -30.53 Lon: 151.62 Height: 1079.0 m
Data from the previous 72 hours. | See also: Recent months at Armidale Airport
Date/Time
EST
Temp
°C
App
Temp
°C
Dew
Point
°C
Rel
Hum
%
Delta-T
°C
Wind Press
QNH
hPa
Press
MSL
hPa
Rain since
9am
mm
Dir  Spd
km/h
Gust
km/h
Spd
kts
Gust
kts
24/08:30pm 2.1 -3.1 0.2 87 0.8 WNW 17 22 9 12 1015.4 1015.5 0.0
24/08:00pm 1.8 -1.9 -0.1 87 0.7 WNW 9 11 5 6 1015.3 1015.4 0.0
24/07:30pm 2.0 -2.1 -0.1 86 0.8 W 11 15 6 8 1015.0 1015.1 0.0
24/07:00pm 2.1 -1.6 -0.2 85 0.9 W 9 13 5 7 1014.7 1014.8 0.0
24/06:30pm 2.7 -1.4 0.1 83 1.0 WNW 11 15 6 8 1014.5 1014.6 0.0
24/06:00pm 2.9 -1.5 0.3 83 1.0 WNW 13 17 7 9 1014.5 1014.6 0.0
24/05:30pm 3.4 -1.0 0.5 81 1.2 WNW 13 17 7 9 1014.4 1014.5 0.0
24/05:00pm 4.0 -0.8 0.3 77 1.5 WNW 15 20 8 11 1014.3 1014.4 0.0
24/04:30pm 4.3 -0.9 0.3 75 1.6 WNW 17 19 9 10 1014.1 1014.2 0.0
24/04:00pm 4.3 -0.9 -0.1 73 1.8 WNW 17 20 9 11 1014.1 1014.2 0.0
24/03:30pm 4.3 -1.5 0.1 74 1.7 WNW 20 24 11 13 1014.1 1014.2 0.0
24/03:00pm 4.5 -1.0 0.6 76 1.6 WNW 19 24 10 13 1014.0 1014.1 0.0
24/02:30pm 4.8 -1.3 0.4 73 1.8 WNW 22 26 12 14 1014.4 1014.5 0.0
24/02:00pm 5.0 0.1 -0.4 68 2.2 WNW 15 20 8 11 1013.3 1013.3 0.0
24/01:30pm 5.0 -1.2 0.0 70 2.0 W 22 26 12 14 1014.1 1014.2 0.0
24/01:00pm 4.5 0.0 -0.3 71 1.9 W 13 17 7 9 1013.6 1013.7 0.0
24/12:30pm 4.7 0.4 1.2 78 1.5 NW 13 20 7 11 1014.6 1014.7 0.0
24/12:00pm 4.2 0.3 1.4 82 1.2 WNW 11 19 6 10 1015.8 1015.9 0.0
24/11:30am 4.0 -0.2 1.4 83 1.1 NW 13 20 7 11 1016.7 1016.9 0.0
24/11:00am 3.7 -1.3 1.1 83 1.1 NW 17 26 9 14 1016.8 1017.0 0.0
24/10:30am 3.6 -1.4 1.2 84 1.0 WNW 17 20 9 11 1017.0 1017.2 0.0
24/10:00am 3.2 -0.4 0.9 85 0.9 WNW 9 13 5 7 1016.5 1016.6 0.0
24/09:30am 3.2 -1.4 1.3 87 0.8 WNW 15 19 8 10 1016.5 1016.6 0.0
24/09:00am 3.1 -1.2 1.3 88 0.7 W 13 17 7 9 1016.1 1016.3 0.0
24/08:30am 2.9 -1.3 1.7 92 0.5 WNW 13 15 7 8 1016.7 1016.9 0.0
24/08:00am 2.5 -1.3 1.9 96 0.3 NW 11 15 6 8 1016.6 1016.7 0.0
24/07:30am 2.2 -1.6 1.8 97 0.2 NNW 11 13 6 7 1015.6 1015.7 0.0
24/07:00am 1.8 0.0 1.5 98 0.1 CALM 0 0 0 0 1015.0 1015.1 0.0
24/06:30am 1.6 -1.9 1.3 98 0.1 NNE 9 11 5 6 1015.3 1015.4 0.0
24/06:00am 1.2 -2.4 0.9 98 0.1 NNE 9 11 5 6 1014.7 1014.8 0.0
24/05:30am 0.9 -1.4 0.6 98 0.1 NE 2 9 1 5 1014.4 1014.5 0.0
24/05:00am 0.6 -1.3 0.3 98 0.1 CALM 0 0 0 0 1014.6 1014.7 0.0
24/04:30am 0.7 -2.4 0.3 97 0.2 WNW 6 9 3 5 1014.6 1014.7 0.0
24/04:00am 1.0 -1.7 0.4 96 0.2 WNW 4 6 2 3 1014.4 1014.5 0.0
24/03:30am 1.6 -1.9 1.0 96 0.2 W 9 11 5 6 1014.7 1014.8 0.0
24/03:00am 1.3 -3.4 0.7 96 0.2 W 15 17 8 9 1014.8 1014.9 0.0
24/02:30am 1.5 -3.2 0.6 94 0.4 W 15 20 8 11 1014.7 1014.8 0.0
24/02:00am 1.7 -3.8 0.5 92 0.5 W 19 26 10 14 1015.0 1015.1 0.0
24/01:30am 2.0 -4.1 0.7 91 0.5 WNW 22 26 12 14 1015.1 1015.3 0.0
24/01:00am 2.1 -4.0 0.5 89 0.6 WNW 22 30 12 16 1014.5 1014.6 0.0
24/12:30am 2.6 -3.1 0.7 87 0.8 W 20 28 11 15 1014.6 1014.7 0.0
24/12:00am 2.5 -3.6 0.6 87 0.8 WNW 22 32 12 17 1014.7 1014.8 0.0
 
Date/Time
EST
Temp
°C
App
Temp
°C
Dew
Point
°C
Rel
Hum
%
Delta-T
°C
Wind Press
QNH
hPa
Press
MSL
hPa
Rain since
9am
mm
Dir  Spd
km/h
Gust
km/h
Spd
kts
Gust
kts
23/11:30pm 3.0 -3.4 1.1 87 0.8 W 24 33 13 18 1014.7 1014.8 0.0
23/11:00pm 3.2 -3.2 1.1 86 0.9 W 24 30 13 16 1014.5 1014.6 0.0
23/10:30pm 3.4 -3.7 1.1 85 1.0 W 28 35 15 19 1014.4 1014.5 0.0
23/10:00pm 3.7 -3.0 1.3 84 1.0 W 26 33 14 18 1014.3 1014.4 0.0
23/09:30pm 4.1 -3.8 1.1 81 1.3 W 32 41 17 22 1014.0 1014.1 0.0
23/09:00pm 4.7 -2.9 0.8 76 1.6 W 30 41 16 22 1013.8 1013.9 0.0
23/08:30pm 5.1 -3.0 -0.3 68 2.2 W 32 41 17 22 1013.7 1013.8 0.0
23/08:00pm 5.5 -3.3 -1.0 63 2.6 WNW 35 44 19 24 1013.1 1013.2 0.0
23/07:30pm 5.9 -2.3 -1.0 61 2.8 W 32 44 17 24 1013.3 1013.3 0.0
23/07:00pm 6.2 -2.0 -1.2 59 3.0 W 32 41 17 22 1012.9 1013.0 0.0
23/06:30pm 6.4 -1.8 -1.0 59 3.0 W 32 41 17 22 1012.6 1012.6 0.0
23/06:00pm 6.8 -2.0 -1.1 57 3.2 W 35 46 19 25 1012.1 1012.2 0.0
23/05:30pm 7.4 -0.6 0.4 61 3.0 W 32 44 17 24 1011.6 1011.6 0.0
23/05:00pm 8.3 0.1 0.3 57 3.4 W 33 43 18 23 1011.1 1011.2 0.0
23/04:30pm 9.4 1.3 1.3 57 3.6 W 33 44 18 24 1010.8 1010.8 0.0
23/04:00pm 10.0 1.7 1.9 57 3.6 W 35 44 19 24 1010.1 1010.1 0.0
23/03:30pm 10.7 2.0 1.8 54 4.0 W 37 46 20 25 1010.0 1010.0 0.0
23/03:00pm 11.2 2.7 3.0 57 3.8 W 37 48 20 26 1009.9 1009.9 0.0
23/02:30pm 11.3 2.8 3.1 57 3.8 WNW 37 52 20 28 1009.7 1009.7 0.0
23/02:07pm 11.3 2.4 3.3 58 3.7 W 39 57 21 31 1009.6 1009.6 0.0
23/02:00pm 11.2 1.5 2.8 56 3.9 W 43 50 23 27 1009.7 1009.7 0.0
23/01:30pm 11.2 1.4 2.5 55 4.0 WNW 43 56 23 30 1009.4 1009.3 0.0
23/01:00pm 11.0 1.2 2.3 55 4.0 WNW 43 56 23 30 1009.4 1009.3 0.0
23/12:30pm 10.9 -0.2 2.2 55 4.0 WNW 50 63 27 34 1009.4 1009.3 0.0
23/12:00pm 11.0 0.4 1.0 50 4.5 W 46 65 25 35 1009.7 1009.7 0.0
23/11:30am 11.3 0.5 2.1 53 4.2 WNW 48 61 26 33 1009.9 1009.9 0.0
23/11:00am 10.9 -0.7 1.7 53 4.2 WNW 52 67 28 36 1009.9 1009.9 0.0
23/10:30am 11.0 0.3 2.3 55 4.0 WNW 48 74 26 40 1009.8 1009.8 0.0
23/10:00am 11.2 1.3 4.7 64 3.1 W 46 65 25 35 1009.8 1009.8 0.0
23/09:42am 10.9 0.2 4.8 66 2.9 W 50 69 27 37 1009.7 1009.7 0.0
23/09:30am 10.8 -0.1 5.6 70 2.6 W 52 65 28 35 1009.8 1009.8 0.0
23/09:00am 10.8 0.5 6.4 74 2.2 W 50 69 27 37 1009.6 1009.6 0.2
23/08:49am 10.7 0.4 6.6 76 2.1 W 50 69 27 37 1009.6 1009.6 0.2
23/08:30am 10.2 0.9 7.4 83 1.4 W 46 65 25 35 1009.6 1009.6 0.2
23/08:13am 10.6 2.0 8.7 88 1.0 W 44 65 24 35 1009.5 1009.5 0.2
23/08:02am 11.7 2.7 8.7 82 1.6 W 46 65 25 35 1009.1 1009.1 0.2
23/08:00am 13.0 4.1 9.1 77 2.1 W 46 63 25 34 1009.0 1009.0 0.2
23/07:30am 13.7 4.7 10.1 79 2.0 WNW 48 67 26 36 1008.3 1008.2 0.2
23/07:00am 13.9 4.8 11.1 83 1.6 WNW 50 70 27 38 1008.1 1008.1 0.2
23/06:30am 14.5 6.8 12.0 85 1.4 WNW 44 67 24 36 1007.7 1007.6 0.2
23/06:13am 14.8 6.7 11.9 83 1.7 WNW 46 69 25 37 1007.0 1007.0 0.2
23/06:00am 14.7 6.7 12.4 86 1.3 WNW 46 61 25 33 1007.3 1007.2 0.2
23/05:30am 14.8 5.4 12.8 88 1.2 WNW 54 76 29 41 1006.7 1006.6 0.2
23/05:00am 14.8 5.9 13.0 89 1.1 WNW 52 70 28 38 1006.6 1006.5 0.2
23/04:30am 15.0 7.0 13.4 90 0.9 WNW 48 67 26 36 1006.9 1006.8 0.2
23/04:00am 15.2 7.1 13.2 88 1.2 WNW 48 69 26 37 1006.9 1006.8 0.2
23/03:30am 15.3 6.9 13.5 89 1.1 WNW 50 70 27 38 1007.1 1007.1 0.2
23/03:00am 15.5 5.9 13.9 90 1.0 NW 57 80 31 43 1007.3 1007.2 0.2
23/02:30am 15.6 6.5 13.8 89 1.1 NW 54 72 29 39 1007.4 1007.3 0.2
23/02:03am 15.8 6.8 14.0 89 1.1 WNW 54 78 29 42 1007.6 1007.5 0.2
23/02:00am 15.8 7.2 14.0 89 1.1 NW 52 69 28 37 1007.7 1007.6 0.2
23/01:30am 16.1 6.7 13.9 87 1.3 NW 56 85 30 46 1008.3 1008.2 0.2
23/01:01am 15.9 7.6 13.7 87 1.3 NW 50 70 27 38 1008.6 1008.5 0.2
23/01:00am 15.9 7.6 13.9 88 1.2 NW 50 65 27 35 1008.6 1008.5 0.2
23/12:30am 16.1 7.5 14.1 88 1.2 NW 52 70 28 38 1009.3 1009.2 0.2
23/12:01am 16.5 8.3 14.2 86 1.4 NW 50 69 27 37 1009.6 1009.6 0.2
23/12:00am 16.5 8.7 14.2 86 1.4 NW 48 63 26 34 1009.7 1009.7 0.2
 
Date/Time
EST
Temp
°C
App
Temp
°C
Dew
Point
°C
Rel
Hum
%
Delta-T
°C
Wind Press
QNH
hPa
Press
MSL
hPa
Rain since
9am
mm
Dir  Spd
km/h
Gust
km/h
Spd
kts
Gust
kts
22/11:30pm 16.5 7.6 14.2 86 1.4 NW 54 74 29 40 1010.1 1010.1 0.2
22/11:00pm 16.1 9.2 14.1 88 1.2 NW 43 65 23 35 1010.6 1010.6 0.2
22/10:45pm 16.2 9.1 14.0 87 1.3 NW 44 65 24 35 1010.6 1010.6 0.2
22/10:30pm 16.2 8.4 14.0 87 1.3 NW 48 65 26 35 1011.0 1011.1 0.2
22/10:00pm 15.9 9.0 14.6 92 0.8 NW 44 69 24 37 1011.3 1011.3 0.2
22/09:30pm 15.9 9.1 14.3 90 1.0 NW 43 65 23 35 1011.4 1011.4 0.2
22/09:07pm 15.8 10.6 14.5 92 0.8 NW 35 54 19 29 1011.6 1011.6 0.2
22/09:00pm 15.9 9.5 14.3 90 1.0 NW 41 56 22 30 1011.6 1011.6 0.2
22/08:30pm 15.9 10.4 14.6 92 0.8 NW 37 56 20 30 1011.8 1011.8 0.2
22/08:23pm 15.8 10.5 14.3 91 0.9 NW 35 56 19 30 1011.7 1011.7 0.2
22/08:00pm 15.4 10.1 14.3 93 0.7 NW 35 48 19 26 1011.8 1011.8 0.2
22/07:30pm 15.5 10.9 14.5 94 0.6 NW 32 43 17 23 1012.1 1012.2 0.2
22/07:00pm 15.3 10.5 14.0 92 0.8 NW 32 43 17 23 1012.0 1012.1 0.2
22/06:30pm 15.2 11.0 14.6 96 0.4 WNW 30 39 16 21 1012.5 1012.5 0.2
22/06:06pm 15.1 12.0 14.5 96 0.4 NW 24 33 13 18 1012.6 1012.6 0.2
22/06:00pm 15.2 11.3 14.4 95 0.5 NW 28 35 15 19 1012.7 1012.8 0.2
22/05:30pm 15.1 10.7 14.1 94 0.6 NW 30 41 16 22 1012.4 1012.4 0.2
22/05:17pm 15.2 11.4 14.6 96 0.4 NW 28 44 15 24 1012.3 1012.3 0.2
22/05:00pm 15.1 10.5 14.5 96 0.4 NW 32 43 17 23 1012.1 1012.2 0.2
22/04:30pm 15.2 10.6 14.6 96 0.4 WNW 32 46 17 25 1012.3 1012.3 0.2
22/04:00pm 15.4 10.5 14.4 94 0.6 WNW 33 48 18 26 1012.6 1012.6 0.2
22/03:30pm 15.5 11.2 14.5 94 0.6 WNW 30 41 16 22 1012.8 1012.9 0.2
22/03:00pm 15.9 11.2 14.4 91 0.9 WNW 32 41 17 22 1012.8 1012.9 0.2
22/02:30pm 15.7 10.9 14.6 93 0.7 WNW 33 46 18 25 1013.0 1013.1 0.2
22/02:00pm 15.6 10.1 14.6 94 0.6 WNW 37 56 20 30 1013.3 1013.3 0.2
22/01:53pm 15.4 10.2 14.4 94 0.6 WNW 35 56 19 30 1013.4 1013.4 0.2
22/01:30pm 15.3 9.8 14.7 96 0.4 WNW 37 50 20 27 1013.6 1013.7 0.2
22/01:00pm 15.4 10.8 15.1 98 0.2 NW 33 50 18 27 1013.7 1013.8 0.2
22/12:45pm 15.7 10.9 14.6 93 0.7 NW 33 44 18 24 1013.9 1014.0 0.2
22/12:30pm 15.9 11.0 13.7 87 1.3 WNW 32 46 17 25 1014.3 1014.4 0.2
22/12:22pm 15.8 11.0 14.0 89 1.1 WNW 32 44 17 24 1014.5 1014.6 0.2
22/12:00pm 15.8 10.9 13.8 88 1.2 WNW 32 44 17 24 1015.0 1015.1 0.2
22/11:48am 16.0 11.2 14.0 88 1.2 NW 32 44 17 24 1015.4 1015.5 0.2
22/11:30am 15.6 11.0 13.6 88 1.2 WNW 30 44 16 24 1015.8 1015.9 0.2
22/11:12am 15.3 10.3 14.0 92 0.8 WNW 33 43 18 23 1015.9 1016.1 0.2
22/11:00am 15.5 10.7 14.0 91 0.9 WNW 32 43 17 23 1016.1 1016.3 0.2
22/10:35am 15.2 10.7 13.9 92 0.8 WNW 30 41 16 22 1016.4 1016.5 0.2
22/10:30am 15.4 11.1 14.3 93 0.7 WNW 30 44 16 24 1016.5 1016.6 0.2
22/10:00am 14.5 10.5 14.2 98 0.2 NW 28 39 15 21 1016.8 1017.0 0.0
22/09:59am 14.5 10.5 14.2 98 0.2 NW 28 39 15 21 1016.8 1017.0 0.0
22/09:30am 13.9 9.8 13.7 99 0.1 WNW 28 35 15 19 1017.0 1017.2 0.0
22/09:00am 13.8 11.1 13.6 99 0.1 WNW 20 28 11 15 1017.1 1017.3 11.4
22/08:46am 13.4 10.2 13.2 99 0.1 WNW 22 32 12 17 1017.3 1017.4 11.4
22/08:30am 13.2 10.0 13.0 99 0.1 WNW 22 30 12 16 1017.4 1017.5 11.4
22/08:00am 13.0 9.3 12.8 99 0.1 WNW 24 33 13 18 1017.1 1017.3 11.4
22/07:30am 12.7 9.9 12.5 99 0.1 WNW 19 22 10 12 1017.0 1017.2 11.4
22/07:00am 12.6 8.8 12.4 99 0.1 WNW 24 33 13 18 1017.0 1017.2 11.4
22/06:30am 12.6 9.6 12.6 100 0.0 WNW 20 24 11 13 1017.1 1017.3 11.4
22/06:00am 12.7 9.7 12.7 100 0.0 WNW 20 30 11 16 1017.0 1017.2 11.4
22/05:49am 12.6 9.6 12.6 100 0.0 WNW 20 26 11 14 1017.0 1017.2 11.4
22/05:30am 12.7 9.0 12.7 100 0.0 WNW 24 30 13 16 1016.9 1017.1 11.4
22/05:00am 12.7 9.7 12.7 100 0.0 WNW 20 28 11 15 1017.0 1017.2 11.4
22/04:32am 12.7 9.4 12.7 100 0.0 WNW 22 28 12 15 1016.9 1017.1 11.4
22/04:30am 12.7 9.7 12.7 100 0.0 WNW 20 28 11 15 1016.9 1017.1 11.4
22/04:00am 12.6 10.2 12.6 100 0.0 WNW 17 20 9 11 1016.9 1017.1 11.4
22/03:30am 12.6 10.2 12.6 100 0.0 WNW 17 20 9 11 1017.3 1017.4 11.4
22/03:00am 12.7 10.3 12.7 100 0.0 WNW 17 20 9 11 1017.6 1017.8 11.4
22/02:30am 12.7 10.3 12.7 100 0.0 WNW 17 20 9 11 1017.8 1018.0 11.4
22/02:00am 12.8 11.6 12.8 100 0.0 W 11 15 6 8 1018.3 1018.5 11.4
22/01:30am 12.9 11.3 12.9 100 0.0 WNW 13 17 7 9 1018.7 1018.9 11.4
22/01:00am 12.9 10.6 12.9 100 0.0 NW 17 20 9 11 1018.8 1019.0 11.4
22/12:30am 12.7 10.7 12.7 100 0.0 WNW 15 19 8 10 1019.0 1019.2 11.4
22/12:00am 13.0 11.5 13.0 100 0.0 WNW 13 17 7 9 1019.3 1019.5 11.4
 
Date/Time
EST
Temp
°C
App
Temp
°C
Dew
Point
°C
Rel
Hum
%
Delta-T
°C
Wind Press
QNH
hPa
Press
MSL
hPa
Rain since
9am
mm
Dir  Spd
km/h
Gust
km/h
Spd
kts
Gust
kts
21/11:30pm 12.9 12.1 12.9 100 0.0 WNW 9 13 5 7 1019.4 1019.6 11.2
21/11:00pm 12.9 11.3 12.9 100 0.0 W 13 17 7 9 1019.8 1020.0 11.2
21/10:30pm 13.0 11.5 13.0 100 0.0 W 13 19 7 10 1020.1 1020.4 11.2
21/10:00pm 13.1 11.2 13.1 100 0.0 W 15 20 8 11 1020.1 1020.4 11.2
21/09:30pm 13.0 11.1 13.0 100 0.0 WNW 15 20 8 11 1019.7 1019.9 11.2
21/09:00pm 12.9 10.6 12.9 100 0.0 W 17 20 9 11 1019.9 1020.2 11.2

Other Formats:

Comma delimited format used in spreadsheet applications
http://www.bom.gov.au/fwo/IDN60801/IDN60801.95773.axf

JavaScript Object Notation format (JSON) in row-major order
http://www.bom.gov.au/fwo/IDN60801/IDN60801.95773.json